Vindilis — FW3808 — position and weather

sailwx.info

Track history (hours):
 
Tides and Currents Weather Stations Pressure Air Temp Water Temp Dewpoint Dewpoint Depression Visibility Wind Speed Wind Dir Waves Ship Positions

Vindilis

Last reported at 2017-Nov-18 19:31 UTC. Time now 2017-Nov-19 03:26 UTC.
Position N 47°21' W 003°09'.

Length 48 m; draft 3 m.

Type: Passenger vessel. MMSI: 227003750.

Date/timePositionNaut miles runAvg speedWind from/ knotsBaromVisibWave heightAir tempDewpointWater temp
2017-Nov-18 19:31N 47°21' W 003°09'0 0.0
2017-Nov-18 19:30N 47°21' W 003°09'2 4.2
2017-Nov-18 19:00N 47°23' W 003°08'611.4
2017-Nov-18 18:31N 47°29' W 003°07'0 0.1
2017-Nov-18 18:00N 47°29' W 003°07'3 5.6
2017-Nov-18 17:31N 47°26' W 003°08'510.2
2017-Nov-18 17:00N 47°21' W 003°09'0 0.0
2017-Nov-18 16:27N 47°21' W 003°09'0 0.0
2017-Nov-18 09:58N 47°21' W 003°09'0 0.1
2017-Nov-18 09:30N 47°21' W 003°09'3 5.8
2017-Nov-18 09:00N 47°24' W 003°08'5 9.9
2017-Nov-18 08:30N 47°29' W 003°07'0 0.0
2017-Nov-18 08:00N 47°29' W 003°07'0 0.3
2017-Nov-18 07:30N 47°29' W 003°07'611.7
2017-Nov-18 07:00N 47°23' W 003°08'2 3.9
2017-Nov-18 06:30N 47°21' W 003°09'0 0.2
2017-Nov-18 06:00N 47°21' W 003°09'0 0.0
2017-Nov-17 18:37N 47°21' W 003°09'0 0.5
2017-Nov-17 18:30N 47°21' W 003°09'3 5.6
2017-Nov-17 18:00N 47°24' W 003°08'510.1
2017-Nov-17 17:30N 47°29' W 003°07'0 0.0
2017-Nov-17 17:00N 47°29' W 003°07'3 5.9
2017-Nov-17 16:30N 47°26' W 003°08'5 8.3
2017-Nov-17 15:55N 47°21' W 003°09'0 0.0
2017-Nov-17 15:28N 47°21' W 003°09'0 0.0
2017-Nov-17 09:45N 47°21' W 003°09'0 0.3
2017-Nov-17 09:30N 47°21' W 003°09'3 5.1
2017-Nov-17 09:00N 47°23' W 003°08'510.7
2017-Nov-17 08:30N 47°29' W 003°07'0 0.0
2017-Nov-17 08:00N 47°29' W 003°07'0 0.4
2017-Nov-17 07:30N 47°28' W 003°07'611.7
2017-Nov-17 07:00N 47°23' W 003°08'2 3.7
2017-Nov-17 06:30N 47°21' W 003°09'0 0.1
2017-Nov-17 06:00N 47°21' W 003°09'0 0.0
2017-Nov-16 19:34N 47°21' W 003°09'0 0.0
2017-Nov-16 19:30N 47°21' W 003°09'2 4.5
2017-Nov-16 19:01N 47°23' W 003°08'611.1
2017-Nov-16 18:31N 47°29' W 003°07'0 0.1
2017-Nov-16 18:00N 47°29' W 003°07'3 5.2
2017-Nov-16 17:31N 47°26' W 003°08'510.6
2017-Nov-16 17:01N 47°21' W 003°09'0 0.0
2017-Nov-16 16:30N 47°21' W 003°09'0 0.2
2017-Nov-16 16:00N 47°21' W 003°09'0 0.0
2017-Nov-16 09:39N 47°21' W 003°09'0 0.5
2017-Nov-16 09:30N 47°21' W 003°09'4 7.5
2017-Nov-16 09:00N 47°24' W 003°08'4 8.3
2017-Nov-16 08:31N 47°29' W 003°07'0 0.0
2017-Nov-16 08:00N 47°29' W 003°07'1 2.5
2017-Nov-16 07:30N 47°27' W 003°08'510.8
2017-Nov-16 07:00N 47°22' W 003°09'1 2.5
2017-Nov-16 06:30N 47°21' W 003°09'0 0.1
2017-Nov-16 06:01N 47°21' W 003°09'0 0.0
2017-Nov-15 19:35N 47°21' W 003°09'0 0.1
2017-Nov-15 19:30N 47°21' W 003°09'2 4.2
2017-Nov-15 19:00N 47°23' W 003°08'611.4
2017-Nov-15 18:30N 47°29' W 003°07'0 0.1
2017-Nov-15 18:00N 47°29' W 003°07'3 5.2
2017-Nov-15 17:30N 47°26' W 003°08'510.2
2017-Nov-15 17:00N 47°21' W 003°09'0 0.0
2017-Nov-15 16:30N 47°21' W 003°09'0 0.0
2017-Nov-15 09:45N 47°21' W 003°09'0 0.3
2017-Nov-15 09:28N 47°21' W 003°09'3 6.0
2017-Nov-15 09:00N 47°24' W 003°08'510.1
2017-Nov-15 08:30N 47°29' W 003°07'0 0.0
2017-Nov-15 08:00N 47°29' W 003°07'0 0.1
2017-Nov-15 07:30N 47°29' W 003°07'713.3
2017-Nov-15 07:00N 47°22' W 003°08'1 2.2
2017-Nov-15 06:27N 47°21' W 003°09'0 0.2
2017-Nov-15 06:00N 47°21' W 003°09'0 0.0
2017-Nov-14 19:39N 47°21' W 003°09'0 0.4
2017-Nov-14 19:29N 47°21' W 003°09'3 5.3
2017-Nov-14 19:00N 47°23' W 003°08'510.7
2017-Nov-14 18:30N 47°29' W 003°07'0 0.0
2017-Nov-14 18:00N 47°29' W 003°07'3 5.2
2017-Nov-14 17:31N 47°26' W 003°08'510.3
2017-Nov-14 17:00N 47°21' W 003°09'0 0.0
2017-Nov-14 16:30N 47°21' W 003°09'0 0.0
2017-Nov-14 09:36N 47°21' W 003°09'0 0.7
2017-Nov-14 09:30N 47°21' W 003°09'3 5.6
2017-Nov-14 09:00N 47°24' W 003°08'510.4
2017-Nov-14 08:31N 47°29' W 003°07'0 0.0
2017-Nov-14 08:01N 47°29' W 003°07'0 0.8
2017-Nov-14 07:30N 47°28' W 003°07'612.3
2017-Nov-14 07:00N 47°22' W 003°08'1 2.7
2017-Nov-14 06:30N 47°21' W 003°09'0 0.1
2017-Nov-14 06:00N 47°21' W 003°09'  
2017-Nov-11 19:38N 47°21' W 003°09'0 0.0
2017-Nov-11 19:30N 47°21' W 003°09'2 4.0
2017-Nov-11 19:00N 47°23' W 003°08'611.7
2017-Nov-11 18:30N 47°29' W 003°07'0 0.0
2017-Nov-11 18:00N 47°29' W 003°07'3 5.9
2017-Nov-11 17:30N 47°26' W 003°08'5 9.5
2017-Nov-11 16:59N 47°21' W 003°09'0 0.0
2017-Nov-11 16:30N 47°21' W 003°09'0 0.0
2017-Nov-11 09:35N 47°21' W 003°09'0 0.1
2017-Nov-11 09:30N 47°21' W 003°09'2 4.8
2017-Nov-11 09:00N 47°23' W 003°08'511.0
2017-Nov-11 08:30N 47°29' W 003°07'0 0.0
2017-Nov-11 08:00N 47°29' W 003°07'0 0.2
2017-Nov-11 07:30N 47°29' W 003°07'611.4
2017-Nov-11 07:00N 47°23' W 003°08'2 4.2
2017-Nov-11 06:30N 47°21' W 003°09'0 0.2
2017-Nov-11 06:00N 47°21' W 003°09'0 0.0
2017-Nov-10 18:43N 47°21' W 003°09'0 0.4
2017-Nov-10 18:30N 47°21' W 003°09'3 5.9
2017-Nov-10 18:00N 47°24' W 003°08'510.0
2017-Nov-10 17:30N 47°29' W 003°07'0 0.0
2017-Nov-10 17:00N 47°29' W 003°07'3 6.3
2017-Nov-10 16:30N 47°25' W 003°08'5 9.2
2017-Nov-10 16:00N 47°21' W 003°09'0 0.0
2017-Nov-10 15:29N 47°21' W 003°09'0 0.0
2017-Nov-10 10:38N 47°21' W 003°09'0 0.6
2017-Nov-10 10:30N 47°21' W 003°09'0 0.0
2017-Nov-10 10:00N 47°21' W 003°09'0 0.0
2017-Nov-10 09:30N 47°21' W 003°09'2 4.3
2017-Nov-10 09:00N 47°23' W 003°08'611.5
2017-Nov-10 08:30N 47°29' W 003°07'0 0.0
2017-Nov-10 08:00N 47°29' W 003°07'0 0.1
2017-Nov-10 07:31N 47°29' W 003°07'611.2
2017-Nov-10 07:00N 47°23' W 003°08'2 4.3
2017-Nov-10 06:29N 47°21' W 003°09'0 0.2
2017-Nov-10 06:00N 47°21' W 003°09'0 0.0
2017-Nov-09 19:37N 47°21' W 003°09'0 0.3
2017-Nov-09 19:30N 47°21' W 003°09'2 4.3
2017-Nov-09 19:00N 47°23' W 003°08'611.4
2017-Nov-09 18:30N 47°29' W 003°07'0 0.0
2017-Nov-09 18:00N 47°29' W 003°07'3 6.0
2017-Nov-09 17:30N 47°26' W 003°08'5 9.0
2017-Nov-09 16:58N 47°21' W 003°09'0 0.0
2017-Nov-09 16:30N 47°21' W 003°09'0 0.0
2017-Nov-09 09:45N 47°21' W 003°09'0 0.3
2017-Nov-09 09:28N 47°21' W 003°09'3 5.7
2017-Nov-09 09:00N 47°23' W 003°08'510.6
2017-Nov-09 08:30N 47°29' W 003°07'0 0.0
2017-Nov-09 08:00N 47°29' W 003°07'0 0.8
2017-Nov-09 07:30N 47°28' W 003°07'611.7
2017-Nov-09 07:00N 47°22' W 003°08'2 3.4
2017-Nov-09 06:30N 47°21' W 003°09'0 0.2
2017-Nov-09 06:00N 47°21' W 003°09'0 0.0
2017-Nov-08 19:38N 47°21' W 003°09'  
Track history (hours):
 
Tides and Currents Weather Stations Pressure Air Temp Water Temp Dewpoint Dewpoint Depression Visibility Wind Speed Wind Dir Waves Ship Positions

Vindilis

Last reported at 2017-Nov-18 19:31 UTC. Time now 2017-Nov-19 03:26 UTC.
Position N 47°21' W 003°09'.

Length 48 m; draft 3 m.

Type: Passenger vessel. MMSI: 227003750.

Date/timePositionNaut miles runAvg speedWind from/ knotsBaromVisibWave heightAir tempDewpointWater temp
2017-Nov-18 19:31N 47°21' W 003°09'0 0.0
2017-Nov-18 19:30N 47°21' W 003°09'2 4.2
2017-Nov-18 19:00N 47°23' W 003°08'611.4
2017-Nov-18 18:31N 47°29' W 003°07'0 0.1
2017-Nov-18 18:00N 47°29' W 003°07'3 5.6
2017-Nov-18 17:31N 47°26' W 003°08'510.2
2017-Nov-18 17:00N 47°21' W 003°09'0 0.0
2017-Nov-18 16:27N 47°21' W 003°09'0 0.0
2017-Nov-18 09:58N 47°21' W 003°09'0 0.1
2017-Nov-18 09:30N 47°21' W 003°09'3 5.8
2017-Nov-18 09:00N 47°24' W 003°08'5 9.9
2017-Nov-18 08:30N 47°29' W 003°07'0 0.0
2017-Nov-18 08:00N 47°29' W 003°07'0 0.3
2017-Nov-18 07:30N 47°29' W 003°07'611.7
2017-Nov-18 07:00N 47°23' W 003°08'2 3.9
2017-Nov-18 06:30N 47°21' W 003°09'0 0.2
2017-Nov-18 06:00N 47°21' W 003°09'0 0.0
2017-Nov-17 18:37N 47°21' W 003°09'0 0.5
2017-Nov-17 18:30N 47°21' W 003°09'3 5.6
2017-Nov-17 18:00N 47°24' W 003°08'510.1
2017-Nov-17 17:30N 47°29' W 003°07'0 0.0
2017-Nov-17 17:00N 47°29' W 003°07'3 5.9
2017-Nov-17 16:30N 47°26' W 003°08'5 8.3
2017-Nov-17 15:55N 47°21' W 003°09'0 0.0
2017-Nov-17 15:28N 47°21' W 003°09'0 0.0
2017-Nov-17 09:45N 47°21' W 003°09'0 0.3
2017-Nov-17 09:30N 47°21' W 003°09'3 5.1
2017-Nov-17 09:00N 47°23' W 003°08'510.7
2017-Nov-17 08:30N 47°29' W 003°07'0 0.0
2017-Nov-17 08:00N 47°29' W 003°07'0 0.4
2017-Nov-17 07:30N 47°28' W 003°07'611.7
2017-Nov-17 07:00N 47°23' W 003°08'2 3.7
2017-Nov-17 06:30N 47°21' W 003°09'0 0.1
2017-Nov-17 06:00N 47°21' W 003°09'0 0.0
2017-Nov-16 19:34N 47°21' W 003°09'0 0.0
2017-Nov-16 19:30N 47°21' W 003°09'2 4.5
2017-Nov-16 19:01N 47°23' W 003°08'611.1
2017-Nov-16 18:31N 47°29' W 003°07'0 0.1
2017-Nov-16 18:00N 47°29' W 003°07'3 5.2
2017-Nov-16 17:31N 47°26' W 003°08'510.6
2017-Nov-16 17:01N 47°21' W 003°09'0 0.0
2017-Nov-16 16:30N 47°21' W 003°09'0 0.2
2017-Nov-16 16:00N 47°21' W 003°09'0 0.0
2017-Nov-16 09:39N 47°21' W 003°09'0 0.5
2017-Nov-16 09:30N 47°21' W 003°09'4 7.5
2017-Nov-16 09:00N 47°24' W 003°08'4 8.3
2017-Nov-16 08:31N 47°29' W 003°07'0 0.0
2017-Nov-16 08:00N 47°29' W 003°07'1 2.5
2017-Nov-16 07:30N 47°27' W 003°08'510.8
2017-Nov-16 07:00N 47°22' W 003°09'1 2.5
2017-Nov-16 06:30N 47°21' W 003°09'0 0.1
2017-Nov-16 06:01N 47°21' W 003°09'0 0.0
2017-Nov-15 19:35N 47°21' W 003°09'0 0.1
2017-Nov-15 19:30N 47°21' W 003°09'2 4.2
2017-Nov-15 19:00N 47°23' W 003°08'611.4
2017-Nov-15 18:30N 47°29' W 003°07'0 0.1
2017-Nov-15 18:00N 47°29' W 003°07'3 5.2
2017-Nov-15 17:30N 47°26' W 003°08'510.2
2017-Nov-15 17:00N 47°21' W 003°09'0 0.0
2017-Nov-15 16:30N 47°21' W 003°09'0 0.0
2017-Nov-15 09:45N 47°21' W 003°09'0 0.3
2017-Nov-15 09:28N 47°21' W 003°09'3 6.0
2017-Nov-15 09:00N 47°24' W 003°08'510.1
2017-Nov-15 08:30N 47°29' W 003°07'0 0.0
2017-Nov-15 08:00N 47°29' W 003°07'0 0.1
2017-Nov-15 07:30N 47°29' W 003°07'713.3
2017-Nov-15 07:00N 47°22' W 003°08'1 2.2
2017-Nov-15 06:27N 47°21' W 003°09'0 0.2
2017-Nov-15 06:00N 47°21' W 003°09'0 0.0
2017-Nov-14 19:39N 47°21' W 003°09'0 0.4
2017-Nov-14 19:29N 47°21' W 003°09'3 5.3
2017-Nov-14 19:00N 47°23' W 003°08'510.7
2017-Nov-14 18:30N 47°29' W 003°07'0 0.0
2017-Nov-14 18:00N 47°29' W 003°07'3 5.2
2017-Nov-14 17:31N 47°26' W 003°08'510.3
2017-Nov-14 17:00N 47°21' W 003°09'0 0.0
2017-Nov-14 16:30N 47°21' W 003°09'0 0.0
2017-Nov-14 09:36N 47°21' W 003°09'0 0.7
2017-Nov-14 09:30N 47°21' W 003°09'3 5.6
2017-Nov-14 09:00N 47°24' W 003°08'510.4
2017-Nov-14 08:31N 47°29' W 003°07'0 0.0
2017-Nov-14 08:01N 47°29' W 003°07'0 0.8
2017-Nov-14 07:30N 47°28' W 003°07'612.3
2017-Nov-14 07:00N 47°22' W 003°08'1 2.7
2017-Nov-14 06:30N 47°21' W 003°09'0 0.1
2017-Nov-14 06:00N 47°21' W 003°09'  
2017-Nov-11 19:38N 47°21' W 003°09'0 0.0
2017-Nov-11 19:30N 47°21' W 003°09'2 4.0
2017-Nov-11 19:00N 47°23' W 003°08'611.7
2017-Nov-11 18:30N 47°29' W 003°07'0 0.0
2017-Nov-11 18:00N 47°29' W 003°07'3 5.9
2017-Nov-11 17:30N 47°26' W 003°08'5 9.5
2017-Nov-11 16:59N 47°21' W 003°09'0 0.0
2017-Nov-11 16:30N 47°21' W 003°09'0 0.0
2017-Nov-11 09:35N 47°21' W 003°09'0 0.1
2017-Nov-11 09:30N 47°21' W 003°09'2 4.8
2017-Nov-11 09:00N 47°23' W 003°08'511.0
2017-Nov-11 08:30N 47°29' W 003°07'0 0.0
2017-Nov-11 08:00N 47°29' W 003°07'0 0.2
2017-Nov-11 07:30N 47°29' W 003°07'611.4
2017-Nov-11 07:00N 47°23' W 003°08'2 4.2
2017-Nov-11 06:30N 47°21' W 003°09'0 0.2
2017-Nov-11 06:00N 47°21' W 003°09'0 0.0
2017-Nov-10 18:43N 47°21' W 003°09'0 0.4
2017-Nov-10 18:30N 47°21' W 003°09'3 5.9
2017-Nov-10 18:00N 47°24' W 003°08'510.0
2017-Nov-10 17:30N 47°29' W 003°07'0 0.0
2017-Nov-10 17:00N 47°29' W 003°07'3 6.3
2017-Nov-10 16:30N 47°25' W 003°08'5 9.2
2017-Nov-10 16:00N 47°21' W 003°09'0 0.0
2017-Nov-10 15:29N 47°21' W 003°09'0 0.0
2017-Nov-10 10:38N 47°21' W 003°09'0 0.6
2017-Nov-10 10:30N 47°21' W 003°09'0 0.0
2017-Nov-10 10:00N 47°21' W 003°09'0 0.0
2017-Nov-10 09:30N 47°21' W 003°09'2 4.3
2017-Nov-10 09:00N 47°23' W 003°08'611.5
2017-Nov-10 08:30N 47°29' W 003°07'0 0.0
2017-Nov-10 08:00N 47°29' W 003°07'0 0.1
2017-Nov-10 07:31N 47°29' W 003°07'611.2
2017-Nov-10 07:00N 47°23' W 003°08'2 4.3
2017-Nov-10 06:29N 47°21' W 003°09'0 0.2
2017-Nov-10 06:00N 47°21' W 003°09'0 0.0
2017-Nov-09 19:37N 47°21' W 003°09'0 0.3
2017-Nov-09 19:30N 47°21' W 003°09'2 4.3
2017-Nov-09 19:00N 47°23' W 003°08'611.4
2017-Nov-09 18:30N 47°29' W 003°07'0 0.0
2017-Nov-09 18:00N 47°29' W 003°07'3 6.0
2017-Nov-09 17:30N 47°26' W 003°08'5 9.0
2017-Nov-09 16:58N 47°21' W 003°09'0 0.0
2017-Nov-09 16:30N 47°21' W 003°09'0 0.0
2017-Nov-09 09:45N 47°21' W 003°09'0 0.3
2017-Nov-09 09:28N 47°21' W 003°09'3 5.7
2017-Nov-09 09:00N 47°23' W 003°08'510.6
2017-Nov-09 08:30N 47°29' W 003°07'0 0.0
2017-Nov-09 08:00N 47°29' W 003°07'0 0.8
2017-Nov-09 07:30N 47°28' W 003°07'611.7
2017-Nov-09 07:00N 47°22' W 003°08'2 3.4
2017-Nov-09 06:30N 47°21' W 003°09'0 0.2
2017-Nov-09 06:00N 47°21' W 003°09'0 0.0
2017-Nov-08 19:38N 47°21' W 003°09'  

Dump ship's entire track history